sensor_id;sensor_type;location;lat;lon;timestamp;P1;durP1;ratioP1;P2;durP2;ratioP2
70459;SDS011;57920;54.796;9.430;2022-09-02T00:01:10;1.17;;;0.80;;
70459;SDS011;57920;54.796;9.430;2022-09-02T00:03:40;0.67;;;0.67;;
70459;SDS011;57920;54.796;9.430;2022-09-02T00:06:06;0.83;;;0.80;;
70459;SDS011;57920;54.796;9.430;2022-09-02T00:08:32;0.83;;;0.83;;
70459;SDS011;57920;54.796;9.430;2022-09-02T00:10:58;1.13;;;0.90;;
70459;SDS011;57920;54.796;9.430;2022-09-02T00:13:26;0.57;;;0.57;;
70459;SDS011;57920;54.796;9.430;2022-09-02T00:15:53;1.20;;;1.10;;
70459;SDS011;57920;54.796;9.430;2022-09-02T00:18:19;0.70;;;0.70;;
70459;SDS011;57920;54.796;9.430;2022-09-02T00:20:45;1.00;;;0.80;;
70459;SDS011;57920;54.796;9.430;2022-09-02T00:23:13;1.07;;;0.90;;
70459;SDS011;57920;54.796;9.430;2022-09-02T00:25:40;0.70;;;0.57;;
70459;SDS011;57920;54.796;9.430;2022-09-02T00:28:08;0.67;;;0.67;;
70459;SDS011;57920;54.796;9.430;2022-09-02T00:30:34;1.17;;;1.03;;
70459;SDS011;57920;54.796;9.430;2022-09-02T00:33:00;0.77;;;0.77;;
70459;SDS011;57920;54.796;9.430;2022-09-02T00:35:27;0.60;;;0.60;;
70459;SDS011;57920;54.796;9.430;2022-09-02T00:37:52;2.23;;;0.97;;
70459;SDS011;57920;54.796;9.430;2022-09-02T00:40:18;0.70;;;0.70;;
70459;SDS011;57920;54.796;9.430;2022-09-02T00:42:44;0.77;;;0.77;;
70459;SDS011;57920;54.796;9.430;2022-09-02T00:45:11;1.70;;;1.10;;
70459;SDS011;57920;54.796;9.430;2022-09-02T00:47:37;1.30;;;0.87;;
70459;SDS011;57920;54.796;9.430;2022-09-02T00:50:04;0.80;;;0.70;;
70459;SDS011;57920;54.796;9.430;2022-09-02T00:52:34;0.90;;;0.80;;
70459;SDS011;57920;54.796;9.430;2022-09-02T00:55:10;1.50;;;0.73;;
70459;SDS011;57920;54.796;9.430;2022-09-02T00:57:40;1.93;;;1.00;;
70459;SDS011;57920;54.796;9.430;2022-09-02T01:00:20;0.60;;;0.60;;
70459;SDS011;57920;54.796;9.430;2022-09-02T01:03:00;0.70;;;0.70;;
70459;SDS011;57920;54.796;9.430;2022-09-02T01:05:29;0.90;;;0.87;;
70459;SDS011;57920;54.796;9.430;2022-09-02T01:07:57;0.70;;;0.70;;
70459;SDS011;57920;54.796;9.430;2022-09-02T01:10:28;4.20;;;0.80;;
70459;SDS011;57920;54.796;9.430;2022-09-02T01:13:00;1.03;;;0.63;;
70459;SDS011;57920;54.796;9.430;2022-09-02T01:15:36;0.60;;;0.60;;
70459;SDS011;57920;54.796;9.430;2022-09-02T01:18:05;1.20;;;0.60;;
70459;SDS011;57920;54.796;9.430;2022-09-02T01:20:33;1.27;;;0.83;;
70459;SDS011;57920;54.796;9.430;2022-09-02T01:22:59;2.40;;;0.97;;
70459;SDS011;57920;54.796;9.430;2022-09-02T01:25:27;0.60;;;0.60;;
70459;SDS011;57920;54.796;9.430;2022-09-02T01:28:01;1.03;;;0.80;;
70459;SDS011;57920;54.796;9.430;2022-09-02T01:30:30;2.23;;;0.87;;
70459;SDS011;57920;54.796;9.430;2022-09-02T01:32:57;1.20;;;0.67;;
70459;SDS011;57920;54.796;9.430;2022-09-02T01:35:23;1.03;;;0.70;;
70459;SDS011;57920;54.796;9.430;2022-09-02T01:37:49;1.47;;;0.90;;
70459;SDS011;57920;54.796;9.430;2022-09-02T01:40:19;0.60;;;0.60;;
70459;SDS011;57920;54.796;9.430;2022-09-02T01:42:45;0.80;;;0.57;;
70459;SDS011;57920;54.796;9.430;2022-09-02T01:45:12;0.70;;;0.70;;
70459;SDS011;57920;54.796;9.430;2022-09-02T01:47:39;0.47;;;0.40;;
70459;SDS011;57920;54.796;9.430;2022-09-02T01:50:05;0.87;;;0.73;;
70459;SDS011;57920;54.796;9.430;2022-09-02T01:52:37;0.40;;;0.40;;
70459;SDS011;57920;54.796;9.430;2022-09-02T01:55:02;1.13;;;0.80;;
70459;SDS011;57920;54.796;9.430;2022-09-02T01:57:29;1.00;;;0.77;;
70459;SDS011;57920;54.796;9.430;2022-09-02T01:59:54;1.47;;;0.67;;
70459;SDS011;57920;54.796;9.430;2022-09-02T02:02:20;0.77;;;0.60;;
70459;SDS011;57920;54.796;9.430;2022-09-02T02:04:47;1.03;;;0.70;;
70459;SDS011;57920;54.796;9.430;2022-09-02T02:07:13;0.83;;;0.63;;
70459;SDS011;57920;54.796;9.430;2022-09-02T02:09:41;0.97;;;0.80;;
70459;SDS011;57920;54.796;9.430;2022-09-02T02:12:07;0.40;;;0.40;;
70459;SDS011;57920;54.796;9.430;2022-09-02T02:14:33;1.40;;;0.73;;
70459;SDS011;57920;54.796;9.430;2022-09-02T02:16:59;1.10;;;0.50;;
70459;SDS011;57920;54.796;9.430;2022-09-02T02:19:25;0.80;;;0.60;;
70459;SDS011;57920;54.796;9.430;2022-09-02T02:21:51;2.77;;;0.80;;
70459;SDS011;57920;54.796;9.430;2022-09-02T02:24:16;0.70;;;0.70;;
70459;SDS011;57920;54.796;9.430;2022-09-02T02:26:42;1.03;;;0.77;;
70459;SDS011;57920;54.796;9.430;2022-09-02T02:29:08;0.60;;;0.50;;
70459;SDS011;57920;54.796;9.430;2022-09-02T02:31:34;1.13;;;0.90;;
70459;SDS011;57920;54.796;9.430;2022-09-02T02:33:59;0.70;;;0.70;;
70459;SDS011;57920;54.796;9.430;2022-09-02T02:36:25;2.00;;;0.87;;
70459;SDS011;57920;54.796;9.430;2022-09-02T02:38:51;0.60;;;0.50;;
70459;SDS011;57920;54.796;9.430;2022-09-02T02:41:17;1.23;;;0.97;;
70459;SDS011;57920;54.796;9.430;2022-09-02T02:43:43;1.40;;;0.63;;
70459;SDS011;57920;54.796;9.430;2022-09-02T02:46:08;0.63;;;0.57;;
70459;SDS011;57920;54.796;9.430;2022-09-02T02:48:35;0.50;;;0.50;;
70459;SDS011;57920;54.796;9.430;2022-09-02T02:51:02;1.30;;;0.47;;
70459;SDS011;57920;54.796;9.430;2022-09-02T02:53:28;0.63;;;0.40;;
70459;SDS011;57920;54.796;9.430;2022-09-02T02:55:55;0.80;;;0.63;;
70459;SDS011;57920;54.796;9.430;2022-09-02T02:58:21;1.50;;;0.60;;
70459;SDS011;57920;54.796;9.430;2022-09-02T03:00:47;1.10;;;0.70;;
70459;SDS011;57920;54.796;9.430;2022-09-02T03:03:13;1.53;;;0.73;;
70459;SDS011;57920;54.796;9.430;2022-09-02T03:05:43;1.53;;;0.60;;
70459;SDS011;57920;54.796;9.430;2022-09-02T03:08:10;0.80;;;0.70;;
70459;SDS011;57920;54.796;9.430;2022-09-02T03:10:37;0.93;;;0.90;;
70459;SDS011;57920;54.796;9.430;2022-09-02T03:13:06;0.53;;;0.53;;
70459;SDS011;57920;54.796;9.430;2022-09-02T03:15:33;0.80;;;0.80;;
70459;SDS011;57920;54.796;9.430;2022-09-02T03:18:00;0.63;;;0.57;;
70459;SDS011;57920;54.796;9.430;2022-09-02T03:20:26;0.83;;;0.63;;
70459;SDS011;57920;54.796;9.430;2022-09-02T03:22:52;1.37;;;0.90;;
70459;SDS011;57920;54.796;9.430;2022-09-02T03:25:20;0.77;;;0.70;;
70459;SDS011;57920;54.796;9.430;2022-09-02T03:27:47;0.67;;;0.53;;
70459;SDS011;57920;54.796;9.430;2022-09-02T03:30:15;0.70;;;0.70;;
70459;SDS011;57920;54.796;9.430;2022-09-02T03:32:43;1.20;;;0.70;;
70459;SDS011;57920;54.796;9.430;2022-09-02T03:35:10;0.73;;;0.70;;
70459;SDS011;57920;54.796;9.430;2022-09-02T03:37:39;1.33;;;0.70;;
70459;SDS011;57920;54.796;9.430;2022-09-02T03:40:06;1.10;;;0.73;;
70459;SDS011;57920;54.796;9.430;2022-09-02T03:42:34;0.60;;;0.60;;
70459;SDS011;57920;54.796;9.430;2022-09-02T03:45:00;0.67;;;0.67;;
70459;SDS011;57920;54.796;9.430;2022-09-02T03:47:25;1.23;;;0.77;;
70459;SDS011;57920;54.796;9.430;2022-09-02T03:49:54;1.23;;;0.87;;
70459;SDS011;57920;54.796;9.430;2022-09-02T03:52:19;1.53;;;0.80;;
70459;SDS011;57920;54.796;9.430;2022-09-02T03:54:45;1.53;;;1.03;;
70459;SDS011;57920;54.796;9.430;2022-09-02T03:57:11;1.27;;;0.80;;
70459;SDS011;57920;54.796;9.430;2022-09-02T03:59:37;1.20;;;0.70;;
70459;SDS011;57920;54.796;9.430;2022-09-02T04:02:03;0.90;;;0.70;;
70459;SDS011;57920;54.796;9.430;2022-09-02T04:04:29;1.20;;;0.80;;
70459;SDS011;57920;54.796;9.430;2022-09-02T04:06:54;0.70;;;0.70;;
70459;SDS011;57920;54.796;9.430;2022-09-02T04:09:20;0.83;;;0.73;;
70459;SDS011;57920;54.796;9.430;2022-09-02T04:11:46;0.87;;;0.80;;
70459;SDS011;57920;54.796;9.430;2022-09-02T04:14:12;1.20;;;1.10;;
70459;SDS011;57920;54.796;9.430;2022-09-02T04:16:37;1.20;;;1.03;;
70459;SDS011;57920;54.796;9.430;2022-09-02T04:19:03;1.43;;;1.00;;
70459;SDS011;57920;54.796;9.430;2022-09-02T04:21:31;2.30;;;1.00;;
70459;SDS011;57920;54.796;9.430;2022-09-02T04:23:58;1.10;;;1.00;;
70459;SDS011;57920;54.796;9.430;2022-09-02T04:26:23;1.17;;;1.00;;
70459;SDS011;57920;54.796;9.430;2022-09-02T04:28:50;0.83;;;0.80;;
70459;SDS011;57920;54.796;9.430;2022-09-02T04:31:19;1.07;;;0.87;;
70459;SDS011;57920;54.796;9.430;2022-09-02T04:33:46;1.10;;;0.90;;
70459;SDS011;57920;54.796;9.430;2022-09-02T04:36:13;1.63;;;0.90;;
70459;SDS011;57920;54.796;9.430;2022-09-02T04:38:40;1.10;;;0.80;;
70459;SDS011;57920;54.796;9.430;2022-09-02T04:41:07;0.73;;;0.60;;
70459;SDS011;57920;54.796;9.430;2022-09-02T04:43:34;0.90;;;0.90;;
70459;SDS011;57920;54.796;9.430;2022-09-02T04:46:02;1.20;;;1.10;;
70459;SDS011;57920;54.796;9.430;2022-09-02T04:48:31;1.27;;;1.00;;
70459;SDS011;57920;54.796;9.430;2022-09-02T04:51:02;1.20;;;0.77;;
70459;SDS011;57920;54.796;9.430;2022-09-02T04:53:32;1.40;;;0.90;;
70459;SDS011;57920;54.796;9.430;2022-09-02T04:55:58;1.50;;;0.80;;
70459;SDS011;57920;54.796;9.430;2022-09-02T04:58:24;1.10;;;1.00;;
70459;SDS011;57920;54.796;9.430;2022-09-02T05:00:49;0.80;;;0.80;;
70459;SDS011;57920;54.796;9.430;2022-09-02T05:03:15;2.00;;;1.03;;
70459;SDS011;57920;54.796;9.430;2022-09-02T05:05:41;1.13;;;1.03;;
70459;SDS011;57920;54.796;9.430;2022-09-02T05:08:06;1.83;;;1.10;;
70459;SDS011;57920;54.796;9.430;2022-09-02T05:10:32;2.07;;;1.00;;
70459;SDS011;57920;54.796;9.430;2022-09-02T05:12:58;1.40;;;0.97;;
70459;SDS011;57920;54.796;9.430;2022-09-02T05:15:24;1.17;;;0.90;;
70459;SDS011;57920;54.796;9.430;2022-09-02T05:17:50;1.33;;;0.93;;
70459;SDS011;57920;54.796;9.430;2022-09-02T05:20:16;2.37;;;1.10;;
70459;SDS011;57920;54.796;9.430;2022-09-02T05:22:42;1.80;;;0.83;;
70459;SDS011;57920;54.796;9.430;2022-09-02T05:25:08;1.63;;;1.20;;
70459;SDS011;57920;54.796;9.430;2022-09-02T05:27:34;1.40;;;0.93;;
70459;SDS011;57920;54.796;9.430;2022-09-02T05:30:00;0.73;;;0.73;;
70459;SDS011;57920;54.796;9.430;2022-09-02T05:32:26;1.07;;;0.90;;
70459;SDS011;57920;54.796;9.430;2022-09-02T05:34:52;1.23;;;0.93;;
70459;SDS011;57920;54.796;9.430;2022-09-02T05:37:19;1.27;;;1.10;;
70459;SDS011;57920;54.796;9.430;2022-09-02T05:39:45;1.10;;;1.03;;
70459;SDS011;57920;54.796;9.430;2022-09-02T05:42:11;1.70;;;1.20;;
70459;SDS011;57920;54.796;9.430;2022-09-02T05:44:37;1.53;;;1.23;;
70459;SDS011;57920;54.796;9.430;2022-09-02T05:47:03;1.43;;;1.00;;
70459;SDS011;57920;54.796;9.430;2022-09-02T05:49:30;1.47;;;1.17;;
70459;SDS011;57920;54.796;9.430;2022-09-02T05:51:57;2.10;;;1.30;;
70459;SDS011;57920;54.796;9.430;2022-09-02T05:54:28;1.00;;;1.00;;
70459;SDS011;57920;54.796;9.430;2022-09-02T05:57:03;1.70;;;0.83;;
70459;SDS011;57920;54.796;9.430;2022-09-02T05:59:33;1.40;;;1.20;;
70459;SDS011;57920;54.796;9.430;2022-09-02T06:02:00;2.70;;;1.00;;
70459;SDS011;57920;54.796;9.430;2022-09-02T06:04:26;2.10;;;1.07;;
70459;SDS011;57920;54.796;9.430;2022-09-02T06:06:52;1.40;;;1.00;;
70459;SDS011;57920;54.796;9.430;2022-09-02T06:09:20;3.40;;;1.80;;
70459;SDS011;57920;54.796;9.430;2022-09-02T06:11:47;7.63;;;1.80;;
70459;SDS011;57920;54.796;9.430;2022-09-02T06:14:17;15.37;;;1.97;;
70459;SDS011;57920;54.796;9.430;2022-09-02T06:16:45;15.97;;;2.57;;
70459;SDS011;57920;54.796;9.430;2022-09-02T06:19:12;12.33;;;1.97;;
70459;SDS011;57920;54.796;9.430;2022-09-02T06:21:39;5.13;;;1.43;;
70459;SDS011;57920;54.796;9.430;2022-09-02T06:24:06;3.50;;;1.37;;
70459;SDS011;57920;54.796;9.430;2022-09-02T06:26:33;3.77;;;1.40;;
70459;SDS011;57920;54.796;9.430;2022-09-02T06:29:00;3.67;;;1.97;;
70459;SDS011;57920;54.796;9.430;2022-09-02T06:31:26;4.33;;;1.30;;
70459;SDS011;57920;54.796;9.430;2022-09-02T06:33:52;1.60;;;1.13;;
70459;SDS011;57920;54.796;9.430;2022-09-02T06:36:19;2.93;;;1.47;;
70459;SDS011;57920;54.796;9.430;2022-09-02T06:38:47;3.27;;;1.40;;
70459;SDS011;57920;54.796;9.430;2022-09-02T06:41:15;9.93;;;1.73;;
70459;SDS011;57920;54.796;9.430;2022-09-02T06:43:47;2.63;;;2.07;;
70459;SDS011;57920;54.796;9.430;2022-09-02T06:46:18;4.03;;;2.73;;
70459;SDS011;57920;54.796;9.430;2022-09-02T06:48:47;6.00;;;2.70;;
70459;SDS011;57920;54.796;9.430;2022-09-02T06:51:14;4.50;;;2.30;;
70459;SDS011;57920;54.796;9.430;2022-09-02T06:53:41;3.57;;;2.20;;
70459;SDS011;57920;54.796;9.430;2022-09-02T06:56:07;7.17;;;4.27;;
70459;SDS011;57920;54.796;9.430;2022-09-02T06:58:34;8.87;;;4.47;;
70459;SDS011;57920;54.796;9.430;2022-09-02T07:01:00;4.93;;;3.60;;
70459;SDS011;57920;54.796;9.430;2022-09-02T07:03:26;15.53;;;4.77;;
70459;SDS011;57920;54.796;9.430;2022-09-02T07:06:10;9.20;;;4.60;;
70459;SDS011;57920;54.796;9.430;2022-09-02T07:08:36;12.27;;;4.67;;
70459;SDS011;57920;54.796;9.430;2022-09-02T07:11:11;6.80;;;4.43;;
70459;SDS011;57920;54.796;9.430;2022-09-02T07:13:45;5.33;;;3.10;;
70459;SDS011;57920;54.796;9.430;2022-09-02T07:16:11;7.23;;;3.67;;
70459;SDS011;57920;54.796;9.430;2022-09-02T07:18:37;66.90;;;24.20;;
70459;SDS011;57920;54.796;9.430;2022-09-02T07:21:03;23.20;;;8.70;;
70459;SDS011;57920;54.796;9.430;2022-09-02T07:23:29;17.73;;;8.77;;
70459;SDS011;57920;54.796;9.430;2022-09-02T07:25:54;21.60;;;7.23;;
70459;SDS011;57920;54.796;9.430;2022-09-02T07:28:21;23.93;;;7.80;;
70459;SDS011;57920;54.796;9.430;2022-09-02T07:30:47;20.57;;;7.17;;
70459;SDS011;57920;54.796;9.430;2022-09-02T07:33:13;19.53;;;7.33;;
70459;SDS011;57920;54.796;9.430;2022-09-02T07:35:40;9.90;;;6.00;;
70459;SDS011;57920;54.796;9.430;2022-09-02T07:38:07;9.60;;;6.37;;
70459;SDS011;57920;54.796;9.430;2022-09-02T07:40:34;13.17;;;6.10;;
70459;SDS011;57920;54.796;9.430;2022-09-02T07:43:01;9.30;;;4.63;;
70459;SDS011;57920;54.796;9.430;2022-09-02T07:45:28;9.53;;;4.43;;
70459;SDS011;57920;54.796;9.430;2022-09-02T07:47:55;11.47;;;4.73;;
70459;SDS011;57920;54.796;9.430;2022-09-02T07:50:20;10.70;;;4.00;;
70459;SDS011;57920;54.796;9.430;2022-09-02T07:52:46;11.37;;;4.70;;
70459;SDS011;57920;54.796;9.430;2022-09-02T07:55:12;14.17;;;4.80;;
70459;SDS011;57920;54.796;9.430;2022-09-02T07:57:38;18.00;;;4.73;;
70459;SDS011;57920;54.796;9.430;2022-09-02T08:00:04;14.77;;;5.37;;
70459;SDS011;57920;54.796;9.430;2022-09-02T08:02:30;14.43;;;4.90;;
70459;SDS011;57920;54.796;9.430;2022-09-02T08:04:56;9.60;;;4.43;;
70459;SDS011;57920;54.796;9.430;2022-09-02T08:07:22;7.83;;;4.17;;
70459;SDS011;57920;54.796;9.430;2022-09-02T08:09:48;10.10;;;3.90;;
70459;SDS011;57920;54.796;9.430;2022-09-02T08:12:15;9.20;;;4.03;;
70459;SDS011;57920;54.796;9.430;2022-09-02T08:14:41;8.00;;;3.60;;
70459;SDS011;57920;54.796;9.430;2022-09-02T08:17:07;6.83;;;3.07;;
70459;SDS011;57920;54.796;9.430;2022-09-02T08:19:33;8.43;;;3.27;;
70459;SDS011;57920;54.796;9.430;2022-09-02T08:22:02;41.03;;;7.80;;
70459;SDS011;57920;54.796;9.430;2022-09-02T08:24:30;36.17;;;7.27;;
70459;SDS011;57920;54.796;9.430;2022-09-02T08:26:56;28.87;;;6.57;;
70459;SDS011;57920;54.796;9.430;2022-09-02T08:29:22;44.87;;;7.90;;
70459;SDS011;57920;54.796;9.430;2022-09-02T08:31:48;63.77;;;8.33;;
70459;SDS011;57920;54.796;9.430;2022-09-02T08:34:14;32.07;;;6.97;;
70459;SDS011;57920;54.796;9.430;2022-09-02T08:36:40;36.97;;;8.67;;
70459;SDS011;57920;54.796;9.430;2022-09-02T08:39:07;36.87;;;8.47;;
70459;SDS011;57920;54.796;9.430;2022-09-02T08:41:53;21.50;;;7.07;;
70459;SDS011;57920;54.796;9.430;2022-09-02T08:44:59;26.70;;;7.80;;
70459;SDS011;57920;54.796;9.430;2022-09-02T08:47:42;21.10;;;7.17;;
70459;SDS011;57920;54.796;9.430;2022-09-02T08:50:12;28.97;;;7.20;;
70459;SDS011;57920;54.796;9.430;2022-09-02T08:52:55;14.80;;;5.80;;
70459;SDS011;57920;54.796;9.430;2022-09-02T08:55:47;12.53;;;5.40;;
70459;SDS011;57920;54.796;9.430;2022-09-02T08:58:16;18.93;;;6.63;;
70459;SDS011;57920;54.796;9.430;2022-09-02T09:00:48;18.87;;;5.13;;
70459;SDS011;57920;54.796;9.430;2022-09-02T09:03:29;19.23;;;6.13;;
70459;SDS011;57920;54.796;9.430;2022-09-02T09:06:18;12.73;;;5.00;;
70459;SDS011;57920;54.796;9.430;2022-09-02T09:09:08;12.70;;;5.43;;
70459;SDS011;57920;54.796;9.430;2022-09-02T09:11:57;10.43;;;3.77;;
70459;SDS011;57920;54.796;9.430;2022-09-02T09:14:54;13.43;;;4.33;;
70459;SDS011;57920;54.796;9.430;2022-09-02T09:17:31;33.23;;;7.17;;
70459;SDS011;57920;54.796;9.430;2022-09-02T09:20:20;14.00;;;6.67;;
70459;SDS011;57920;54.796;9.430;2022-09-02T09:22:50;24.07;;;8.03;;
70459;SDS011;57920;54.796;9.430;2022-09-02T09:25:20;21.37;;;6.30;;
70459;SDS011;57920;54.796;9.430;2022-09-02T09:27:57;25.83;;;7.87;;
70459;SDS011;57920;54.796;9.430;2022-09-02T09:30:24;18.93;;;6.30;;
70459;SDS011;57920;54.796;9.430;2022-09-02T09:32:59;17.17;;;8.23;;
70459;SDS011;57920;54.796;9.430;2022-09-02T09:35:26;17.73;;;7.50;;
70459;SDS011;57920;54.796;9.430;2022-09-02T09:37:53;20.07;;;5.87;;
70459;SDS011;57920;54.796;9.430;2022-09-02T09:45:38;11.40;;;6.93;;
70459;SDS011;57920;54.796;9.430;2022-09-02T09:48:19;14.63;;;6.70;;
70459;SDS011;57920;54.796;9.430;2022-09-02T09:53:29;11.23;;;5.97;;
70459;SDS011;57920;54.796;9.430;2022-09-02T09:56:00;18.50;;;5.73;;
70459;SDS011;57920;54.796;9.430;2022-09-02T10:01:09;8.10;;;4.70;;
70459;SDS011;57920;54.796;9.430;2022-09-02T10:03:50;18.37;;;4.93;;
70459;SDS011;57920;54.796;9.430;2022-09-02T10:06:24;11.00;;;3.87;;
70459;SDS011;57920;54.796;9.430;2022-09-02T10:11:26;8.77;;;3.80;;
70459;SDS011;57920;54.796;9.430;2022-09-02T10:14:00;12.63;;;3.83;;
70459;SDS011;57920;54.796;9.430;2022-09-02T10:26:50;8.97;;;3.23;;
70459;SDS011;57920;54.796;9.430;2022-09-02T10:40:37;5.80;;;3.27;;
70459;SDS011;57920;54.796;9.430;2022-09-02T10:43:18;8.40;;;3.93;;
70459;SDS011;57920;54.796;9.430;2022-09-02T10:46:04;10.17;;;2.87;;
70459;SDS011;57920;54.796;9.430;2022-09-02T10:48:49;4.07;;;2.70;;
70459;SDS011;57920;54.796;9.430;2022-09-02T10:56:54;4.03;;;2.90;;
70459;SDS011;57920;54.796;9.430;2022-09-02T10:59:46;3.90;;;2.30;;
70459;SDS011;57920;54.796;9.430;2022-09-02T11:02:20;1.50;;;1.40;;
70459;SDS011;57920;54.796;9.430;2022-09-02T11:04:55;4.40;;;1.87;;
70459;SDS011;57920;54.796;9.430;2022-09-02T11:07:48;3.00;;;1.70;;
70459;SDS011;57920;54.796;9.430;2022-09-02T11:10:40;2.43;;;1.40;;
70459;SDS011;57920;54.796;9.430;2022-09-02T11:13:23;2.90;;;1.90;;
70459;SDS011;57920;54.796;9.430;2022-09-02T11:15:56;5.10;;;2.37;;
70459;SDS011;57920;54.796;9.430;2022-09-02T11:19:13;21.03;;;3.83;;
70459;SDS011;57920;54.796;9.430;2022-09-02T11:25:02;8.97;;;1.83;;
70459;SDS011;57920;54.796;9.430;2022-09-02T11:27:45;6.33;;;1.97;;
70459;SDS011;57920;54.796;9.430;2022-09-02T11:30:34;5.43;;;1.47;;
70459;SDS011;57920;54.796;9.430;2022-09-02T11:33:12;4.30;;;1.67;;
70459;SDS011;57920;54.796;9.430;2022-09-02T11:35:43;6.73;;;2.53;;
70459;SDS011;57920;54.796;9.430;2022-09-02T11:41:00;11.73;;;1.97;;
70459;SDS011;57920;54.796;9.430;2022-09-02T11:43:49;12.27;;;2.40;;
70459;SDS011;57920;54.796;9.430;2022-09-02T11:47:06;4.87;;;1.93;;
70459;SDS011;57920;54.796;9.430;2022-09-02T11:49:33;2.83;;;1.67;;
70459;SDS011;57920;54.796;9.430;2022-09-02T11:55:36;4.77;;;1.70;;
70459;SDS011;57920;54.796;9.430;2022-09-02T11:57:40;1.53;;;1.33;;
70459;SDS011;57920;54.796;9.430;2022-09-02T12:00:28;3.10;;;1.73;;
70459;SDS011;57920;54.796;9.430;2022-09-02T12:07:55;2.97;;;1.60;;
70459;SDS011;57920;54.796;9.430;2022-09-02T12:13:07;1.80;;;1.50;;
70459;SDS011;57920;54.796;9.430;2022-09-02T12:15:34;3.53;;;1.80;;
70459;SDS011;57920;54.796;9.430;2022-09-02T12:31:49;2.23;;;1.30;;
70459;SDS011;57920;54.796;9.430;2022-09-02T12:36:44;1.60;;;1.50;;
70459;SDS011;57920;54.796;9.430;2022-09-02T12:41:49;1.77;;;1.60;;
70459;SDS011;57920;54.796;9.430;2022-09-02T12:44:34;1.67;;;1.27;;
70459;SDS011;57920;54.796;9.430;2022-09-02T12:50:02;1.63;;;1.20;;
70459;SDS011;57920;54.796;9.430;2022-09-02T12:55:20;1.50;;;1.20;;
70459;SDS011;57920;54.796;9.430;2022-09-02T12:57:47;1.60;;;1.00;;
70459;SDS011;57920;54.796;9.430;2022-09-02T13:00:32;2.07;;;1.20;;
70459;SDS011;57920;54.796;9.430;2022-09-02T13:05:57;1.57;;;1.13;;
70459;SDS011;57920;54.796;9.430;2022-09-02T13:25:01;1.33;;;1.23;;
70459;SDS011;57920;54.796;9.430;2022-09-02T13:33:09;1.40;;;1.10;;
70459;SDS011;57920;54.796;9.430;2022-09-02T13:35:37;0.90;;;0.90;;
70459;SDS011;57920;54.796;9.430;2022-09-02T13:38:04;1.97;;;1.10;;
70459;SDS011;57920;54.796;9.430;2022-09-02T13:40:34;1.33;;;1.00;;
70459;SDS011;57920;54.796;9.430;2022-09-02T13:45:37;1.47;;;0.80;;
70459;SDS011;57920;54.796;9.430;2022-09-02T13:48:07;1.23;;;0.93;;
70459;SDS011;57920;54.796;9.430;2022-09-02T13:50:34;1.63;;;1.30;;
70459;SDS011;57920;54.796;9.430;2022-09-02T13:53:01;1.93;;;0.97;;
70459;SDS011;57920;54.796;9.430;2022-09-02T13:55:31;1.73;;;1.17;;
70459;SDS011;57920;54.796;9.430;2022-09-02T14:05:39;1.40;;;1.00;;
70459;SDS011;57920;54.796;9.430;2022-09-02T14:08:10;1.57;;;1.20;;
70459;SDS011;57920;54.796;9.430;2022-09-02T14:10:38;1.07;;;0.80;;
70459;SDS011;57920;54.796;9.430;2022-09-02T14:13:06;0.87;;;0.87;;
70459;SDS011;57920;54.796;9.430;2022-09-02T14:15:33;1.50;;;1.03;;
70459;SDS011;57920;54.796;9.430;2022-09-02T14:18:06;1.47;;;1.03;;
70459;SDS011;57920;54.796;9.430;2022-09-02T14:20:33;3.60;;;1.30;;
70459;SDS011;57920;54.796;9.430;2022-09-02T14:22:59;2.17;;;1.10;;
70459;SDS011;57920;54.796;9.430;2022-09-02T14:25:26;5.73;;;1.73;;
70459;SDS011;57920;54.796;9.430;2022-09-02T14:27:59;8.47;;;1.40;;
70459;SDS011;57920;54.796;9.430;2022-09-02T14:35:56;1.80;;;0.93;;
70459;SDS011;57920;54.796;9.430;2022-09-02T14:38:34;0.90;;;0.60;;
70459;SDS011;57920;54.796;9.430;2022-09-02T14:43:42;2.47;;;0.90;;
70459;SDS011;57920;54.796;9.430;2022-09-02T14:46:36;3.10;;;0.73;;
70459;SDS011;57920;54.796;9.430;2022-09-02T14:49:03;1.70;;;0.50;;
70459;SDS011;57920;54.796;9.430;2022-09-02T14:51:38;2.23;;;0.70;;
70459;SDS011;57920;54.796;9.430;2022-09-02T14:54:08;3.03;;;1.07;;
70459;SDS011;57920;54.796;9.430;2022-09-02T14:56:42;0.97;;;0.87;;
70459;SDS011;57920;54.796;9.430;2022-09-02T14:59:12;1.83;;;1.27;;
70459;SDS011;57920;54.796;9.430;2022-09-02T15:01:41;3.33;;;1.10;;
70459;SDS011;57920;54.796;9.430;2022-09-02T15:04:10;7.43;;;1.23;;
70459;SDS011;57920;54.796;9.430;2022-09-02T15:06:37;1.17;;;0.73;;
70459;SDS011;57920;54.796;9.430;2022-09-02T15:09:03;3.70;;;1.43;;
70459;SDS011;57920;54.796;9.430;2022-09-02T15:11:29;1.37;;;0.93;;
70459;SDS011;57920;54.796;9.430;2022-09-02T15:13:55;2.70;;;1.30;;
70459;SDS011;57920;54.796;9.430;2022-09-02T15:16:20;3.27;;;1.60;;
70459;SDS011;57920;54.796;9.430;2022-09-02T15:18:46;2.27;;;1.43;;
70459;SDS011;57920;54.796;9.430;2022-09-02T15:21:11;2.17;;;1.40;;
70459;SDS011;57920;54.796;9.430;2022-09-02T15:23:37;3.67;;;1.80;;
70459;SDS011;57920;54.796;9.430;2022-09-02T15:26:04;3.10;;;1.87;;
70459;SDS011;57920;54.796;9.430;2022-09-02T15:28:31;2.50;;;1.60;;
70459;SDS011;57920;54.796;9.430;2022-09-02T15:30:57;1.40;;;1.07;;
70459;SDS011;57920;54.796;9.430;2022-09-02T15:33:23;1.30;;;0.93;;
70459;SDS011;57920;54.796;9.430;2022-09-02T15:35:49;2.73;;;1.50;;
70459;SDS011;57920;54.796;9.430;2022-09-02T15:38:14;2.13;;;1.20;;
70459;SDS011;57920;54.796;9.430;2022-09-02T15:40:41;2.77;;;1.37;;
70459;SDS011;57920;54.796;9.430;2022-09-02T15:43:08;3.43;;;1.40;;
70459;SDS011;57920;54.796;9.430;2022-09-02T15:45:36;1.43;;;1.30;;
70459;SDS011;57920;54.796;9.430;2022-09-02T15:48:13;1.40;;;1.10;;
70459;SDS011;57920;54.796;9.430;2022-09-02T15:50:39;2.23;;;1.03;;
70459;SDS011;57920;54.796;9.430;2022-09-02T15:53:04;1.63;;;1.27;;
70459;SDS011;57920;54.796;9.430;2022-09-02T15:55:30;2.00;;;1.40;;
70459;SDS011;57920;54.796;9.430;2022-09-02T15:57:57;1.23;;;1.13;;
70459;SDS011;57920;54.796;9.430;2022-09-02T16:00:22;1.23;;;1.13;;
70459;SDS011;57920;54.796;9.430;2022-09-02T16:02:50;2.73;;;1.03;;
70459;SDS011;57920;54.796;9.430;2022-09-02T16:05:16;1.43;;;1.07;;
70459;SDS011;57920;54.796;9.430;2022-09-02T16:07:41;1.47;;;1.37;;
70459;SDS011;57920;54.796;9.430;2022-09-02T16:10:07;2.10;;;1.40;;
70459;SDS011;57920;54.796;9.430;2022-09-02T16:12:34;1.13;;;1.03;;
70459;SDS011;57920;54.796;9.430;2022-09-02T16:14:59;0.87;;;0.83;;
70459;SDS011;57920;54.796;9.430;2022-09-02T16:17:25;2.10;;;1.03;;
70459;SDS011;57920;54.796;9.430;2022-09-02T16:19:51;2.23;;;1.27;;
70459;SDS011;57920;54.796;9.430;2022-09-02T16:22:17;1.90;;;1.03;;
70459;SDS011;57920;54.796;9.430;2022-09-02T16:24:43;0.90;;;0.90;;
70459;SDS011;57920;54.796;9.430;2022-09-02T16:27:09;1.43;;;1.07;;
70459;SDS011;57920;54.796;9.430;2022-09-02T16:29:34;1.50;;;1.20;;
70459;SDS011;57920;54.796;9.430;2022-09-02T16:32:01;2.30;;;1.30;;
70459;SDS011;57920;54.796;9.430;2022-09-02T16:34:27;1.23;;;1.07;;
70459;SDS011;57920;54.796;9.430;2022-09-02T16:36:53;1.43;;;1.23;;
70459;SDS011;57920;54.796;9.430;2022-09-02T16:39:19;2.00;;;1.23;;
70459;SDS011;57920;54.796;9.430;2022-09-02T16:41:48;1.30;;;1.10;;
70459;SDS011;57920;54.796;9.430;2022-09-02T16:44:17;1.50;;;1.40;;
70459;SDS011;57920;54.796;9.430;2022-09-02T16:46:48;1.20;;;1.07;;
70459;SDS011;57920;54.796;9.430;2022-09-02T16:49:16;1.13;;;0.87;;
70459;SDS011;57920;54.796;9.430;2022-09-02T16:51:46;1.93;;;1.20;;
70459;SDS011;57920;54.796;9.430;2022-09-02T16:54:14;1.90;;;1.00;;
70459;SDS011;57920;54.796;9.430;2022-09-02T16:56:40;1.40;;;1.10;;
70459;SDS011;57920;54.796;9.430;2022-09-02T16:59:06;0.93;;;0.90;;
70459;SDS011;57920;54.796;9.430;2022-09-02T17:01:34;1.97;;;1.03;;
70459;SDS011;57920;54.796;9.430;2022-09-02T17:04:01;0.57;;;0.57;;